Time;durP1;ratioP1;P1;durP2;ratioP2;P2;SDS_P1;SDS_P2;PMS_P1;PMS_P2;Temp;Humidity;BMP_temperature;BMP_pressure;BME280_temperature;BME280_humidity;BME280_pressure;Samples;Min_cycle;Max_cycle;Signal;HPM_P1;HPM_P2
2023/09/26 00:00:58;;;;;;;6.50;3.30;;;;;;;;;;4996963;28;20385;-72
2023/09/26 00:03:43;;;;;;;5.80;3.45;;;;;;;;;;5008400;28;20395;-74
2023/09/26 00:06:29;;;;;;;5.90;3.35;;;;;;;;;;5008494;28;20072;-76
2023/09/26 00:09:14;;;;;;;4.43;3.00;;;;;;;;;;4999644;28;20444;-77
2023/09/26 00:12:00;;;;;;;7.18;3.60;;;;;;;;;;5008116;28;20041;-74
2023/09/26 00:14:45;;;;;;;8.88;3.40;;;;;;;;;;4988590;28;20038;-74
2023/09/26 00:17:30;;;;;;;4.43;2.78;;;;;;;;;;5006740;28;20503;-73
2023/09/26 00:20:18;;;;;;;5.95;3.05;;;;;;;;;;5008102;28;20516;-74
2023/09/26 00:23:07;;;;;;;5.85;3.40;;;;;;;;;;5007860;28;20080;-74
2023/09/26 00:25:52;;;;;;;4.88;3.08;;;;;;;;;;4988031;28;20413;-75
2023/09/26 00:28:37;;;;;;;3.72;2.60;;;;;;;;;;5007165;28;20056;-73
2023/09/26 00:31:23;;;;;;;6.38;3.50;;;;;;;;;;5008181;28;20045;-73
2023/09/26 00:34:08;;;;;;;5.60;2.47;;;;;;;;;;5008463;28;20040;-73
2023/09/26 00:36:55;;;;;;;6.18;3.30;;;;;;;;;;5007403;28;20497;-74
2023/09/26 00:39:40;;;;;;;6.70;3.30;;;;;;;;;;5008150;28;20492;-74
2023/09/26 00:42:26;;;;;;;6.00;3.35;;;;;;;;;;5007792;28;20049;-74
2023/09/26 00:45:12;;;;;;;6.32;3.10;;;;;;;;;;5007640;28;20042;-74
2023/09/26 00:47:58;;;;;;;5.35;3.38;;;;;;;;;;5014524;28;20365;-70
2023/09/26 00:50:45;;;;;;;6.10;3.33;;;;;;;;;;5007998;28;20493;-70
2023/09/26 00:53:30;;;;;;;5.63;2.72;;;;;;;;;;5010868;28;20032;-71
2023/09/26 00:56:15;;;;;;;4.70;3.30;;;;;;;;;;4995634;28;20046;-70
2023/09/26 00:59:00;;;;;;;5.72;3.47;;;;;;;;;;5007330;28;20492;-69
2023/09/26 01:01:48;;;;;;;9.88;3.40;;;;;;;;;;5008023;28;20109;-70
2023/09/26 01:04:34;;;;;;;5.68;3.17;;;;;;;;;;5007725;28;20469;-74
2023/09/26 01:07:19;;;;;;;4.15;3.05;;;;;;;;;;5007738;28;20044;-74
2023/09/26 01:10:07;;;;;;;7.43;3.55;;;;;;;;;;5007915;28;20037;-74
2023/09/26 01:12:53;;;;;;;8.82;3.33;;;;;;;;;;5007480;28;20042;-74
2023/09/26 01:15:39;;;;;;;5.80;3.30;;;;;;;;;;5008008;28;20167;-73
2023/09/26 01:18:24;;;;;;;5.97;2.90;;;;;;;;;;4977338;28;20037;-75
2023/09/26 01:21:10;;;;;;;3.72;3.00;;;;;;;;;;5007337;28;20497;-67
2023/09/26 01:23:56;;;;;;;5.72;3.25;;;;;;;;;;5007721;28;20164;-69
2023/09/26 01:26:41;;;;;;;5.20;2.90;;;;;;;;;;5007168;28;20409;-69
2023/09/26 01:29:26;;;;;;;4.70;3.17;;;;;;;;;;5007550;28;20112;-69
2023/09/26 01:32:12;;;;;;;4.65;2.85;;;;;;;;;;4998657;28;20046;-71
2023/09/26 01:34:57;;;;;;;5.43;3.00;;;;;;;;;;5011008;28;20034;-69
2023/09/26 01:37:43;;;;;;;5.45;3.17;;;;;;;;;;5010811;28;20037;-68
2023/09/26 01:40:28;;;;;;;5.25;3.30;;;;;;;;;;5011179;28;20500;-79
2023/09/26 01:43:13;;;;;;;3.75;3.05;;;;;;;;;;5010907;28;20068;-69
2023/09/26 01:45:58;;;;;;;5.13;3.28;;;;;;;;;;5001236;28;20065;-69
2023/09/26 01:48:44;;;;;;;5.35;3.30;;;;;;;;;;5011828;28;20420;-69
2023/09/26 01:51:29;;;;;;;6.18;3.13;;;;;;;;;;5010472;28;20588;-69
2023/09/26 01:54:14;;;;;;;4.25;2.97;;;;;;;;;;5011826;28;20381;-70
2023/09/26 01:57:00;;;;;;;4.65;3.08;;;;;;;;;;5010159;28;20743;-67
2023/09/26 01:59:45;;;;;;;5.13;3.15;;;;;;;;;;5010569;28;20083;-73
2023/09/26 02:02:30;;;;;;;5.88;3.50;;;;;;;;;;4994954;28;20045;-68
2023/09/26 02:05:20;;;;;;;10.20;3.55;;;;;;;;;;5009181;28;20041;-67
2023/09/26 02:08:05;;;;;;;;;;;;;;;;;;5009910;28;20481;-69
2023/09/26 02:10:50;;;;;;;4.57;2.90;;;;;;;;;;5010200;28;19924;-67
2023/09/26 02:13:35;;;;;;;5.30;3.20;;;;;;;;;;5010400;28;20037;-66
2023/09/26 02:16:21;;;;;;;4.32;3.10;;;;;;;;;;5010247;28;20042;-69
2023/09/26 02:19:08;;;;;;;6.70;3.35;;;;;;;;;;5010395;28;20033;-77
2023/09/26 02:21:54;;;;;;;8.18;3.22;;;;;;;;;;4978803;28;20022;-75
2023/09/26 02:24:39;;;;;;;5.53;3.63;;;;;;;;;;5006002;28;20204;-76
2023/09/26 02:27:24;;;;;;;5.18;3.17;;;;;;;;;;5009987;28;20033;-75
2023/09/26 02:30:10;;;;;;;6.30;3.50;;;;;;;;;;5010409;28;20381;-76
2023/09/26 02:32:55;;;;;;;8.88;3.95;;;;;;;;;;5010161;28;20315;-76
2023/09/26 02:35:41;;;;;;;8.07;3.45;;;;;;;;;;5009784;28;20034;-69
2023/09/26 02:38:26;;;;;;;5.72;3.30;;;;;;;;;;5009956;28;20045;-73
2023/09/26 02:41:11;;;;;;;6.35;3.45;;;;;;;;;;5010171;28;20049;-74
2023/09/26 02:43:58;;;;;;;5.22;3.85;;;;;;;;;;5009181;28;20489;-73
2023/09/26 02:46:43;;;;;;;6.07;3.15;;;;;;;;;;5013224;28;20128;-73
2023/09/26 02:49:29;;;;;;;6.25;3.90;;;;;;;;;;5009733;28;20061;-74
2023/09/26 02:52:14;;;;;;;6.45;3.83;;;;;;;;;;5009734;28;20026;-75
2023/09/26 02:55:00;;;;;;;7.32;4.00;;;;;;;;;;5010835;28;20104;-74
2023/09/26 02:57:45;;;;;;;5.10;2.97;;;;;;;;;;5009319;28;20121;-74
2023/09/26 03:00:30;;;;;;;8.45;3.50;;;;;;;;;;5009368;28;20029;-73
2023/09/26 03:03:16;;;;;;;10.15;3.85;;;;;;;;;;5009567;28;20050;-73
2023/09/26 03:06:01;;;;;;;3.80;2.78;;;;;;;;;;5009858;28;20030;-73
2023/09/26 03:08:46;;;;;;;4.88;3.92;;;;;;;;;;5009349;28;20034;-74
2023/09/26 03:11:31;;;;;;;5.20;3.58;;;;;;;;;;5009364;28;20587;-73
2023/09/26 03:14:18;;;;;;;5.88;3.08;;;;;;;;;;5009120;28;20057;-68
2023/09/26 03:17:05;;;;;;;5.20;3.67;;;;;;;;;;5008780;28;20043;-70
2023/09/26 03:19:51;;;;;;;4.72;3.03;;;;;;;;;;5009669;28;20033;-68
2023/09/26 03:22:36;;;;;;;6.45;3.35;;;;;;;;;;4989839;28;20034;-67
2023/09/26 03:25:21;;;;;;;5.07;3.05;;;;;;;;;;5008889;28;20030;-69
2023/09/26 03:28:06;;;;;;;6.35;3.65;;;;;;;;;;5008939;28;20040;-68
2023/09/26 03:30:51;;;;;;;6.22;3.15;;;;;;;;;;5009296;28;20055;-69
2023/09/26 03:33:37;;;;;;;5.63;3.25;;;;;;;;;;5008919;28;20441;-72
2023/09/26 03:36:22;;;;;;;8.00;3.60;;;;;;;;;;5008901;28;20045;-75
2023/09/26 03:39:07;;;;;;;5.60;3.80;;;;;;;;;;5008923;28;20026;-74
2023/09/26 03:41:52;;;;;;;5.10;3.30;;;;;;;;;;5008656;28;20044;-74
2023/09/26 03:44:41;;;;;;;6.22;3.03;;;;;;;;;;5008946;28;20030;-74
2023/09/26 03:47:26;;;;;;;6.88;3.20;;;;;;;;;;5011492;28;20489;-73
2023/09/26 03:50:11;;;;;;;3.53;2.80;;;;;;;;;;5011810;28;20033;-81
2023/09/26 03:52:57;;;;;;;5.07;3.20;;;;;;;;;;5008761;28;20037;-72
2023/09/26 03:55:42;;;;;;;6.65;2.92;;;;;;;;;;5008413;28;20049;-73
2023/09/26 03:58:27;;;;;;;5.18;3.35;;;;;;;;;;5008214;28;20503;-73
2023/09/26 04:01:16;;;;;;;4.90;3.13;;;;;;;;;;5008397;28;20044;-73
2023/09/26 04:04:02;;;;;;;4.32;3.40;;;;;;;;;;5008558;28;20017;-73
2023/09/26 04:06:47;;;;;;;7.05;3.30;;;;;;;;;;5008256;28;20505;-69
2023/09/26 04:09:33;;;;;;;7.32;4.57;;;;;;;;;;5008376;28;20434;-79
2023/09/26 04:12:18;;;;;;;6.20;3.13;;;;;;;;;;5008083;28;20045;-77
2023/09/26 04:15:04;;;;;;;7.57;3.78;;;;;;;;;;4987129;28;20061;-77
2023/09/26 04:17:49;;;;;;;5.72;3.72;;;;;;;;;;5008134;28;20046;-78
2023/09/26 04:20:36;;;;;;;6.82;3.92;;;;;;;;;;5008222;28;20113;-76
2023/09/26 04:23:21;;;;;;;4.10;3.17;;;;;;;;;;5008363;28;20313;-76
2023/09/26 04:26:11;;;;;;;5.72;4.15;;;;;;;;;;5006851;28;20553;-78
2023/09/26 04:28:56;;;;;;;5.85;3.72;;;;;;;;;;5007644;28;20038;-67
2023/09/26 04:31:41;;;;;;;6.47;3.78;;;;;;;;;;5008197;28;20057;-68
2023/09/26 04:34:27;;;;;;;7.78;4.35;;;;;;;;;;5008511;28;20053;-67
2023/09/26 04:37:12;;;;;;;7.20;4.03;;;;;;;;;;5008184;28;20034;-69
2023/09/26 04:39:58;;;;;;;6.18;3.95;;;;;;;;;;5007783;28;20037;-68
2023/09/26 04:42:45;;;;;;;7.45;4.60;;;;;;;;;;5008068;28;20424;-68
2023/09/26 04:45:31;;;;;;;5.65;3.80;;;;;;;;;;5007941;28;20070;-76
2023/09/26 04:48:16;;;;;;;7.82;4.28;;;;;;;;;;5010936;28;20042;-68
2023/09/26 04:51:04;;;;;;;7.25;4.18;;;;;;;;;;5007691;28;20109;-69
2023/09/26 04:53:49;;;;;;;5.80;3.85;;;;;;;;;;5009088;28;20052;-71
2023/09/26 04:56:35;;;;;;;6.97;4.68;;;;;;;;;;5007944;28;20050;-70
2023/09/26 04:59:20;;;;;;;6.55;4.32;;;;;;;;;;5007777;28;20042;-69
2023/09/26 05:02:06;;;;;;;8.73;5.03;;;;;;;;;;5008113;28;20066;-74
2023/09/26 05:04:51;;;;;;;6.63;4.03;;;;;;;;;;5007968;28;20044;-69
2023/09/26 05:07:36;;;;;;;8.93;4.82;;;;;;;;;;5009050;28;20033;-69
2023/09/26 05:10:22;;;;;;;12.00;5.00;;;;;;;;;;5011363;28;20030;-70
2023/09/26 05:13:07;;;;;;;8.52;4.68;;;;;;;;;;5011384;28;20029;-71
2023/09/26 05:15:52;;;;;;;8.63;4.95;;;;;;;;;;5011218;28;20072;-69
2023/09/26 05:18:37;;;;;;;8.32;4.93;;;;;;;;;;5011660;28;20088;-69
2023/09/26 05:21:22;;;;;;;8.27;5.30;;;;;;;;;;5011431;28;20112;-70
2023/09/26 05:24:08;;;;;;;7.15;5.45;;;;;;;;;;5011467;28;20293;-70
2023/09/26 05:26:53;;;;;;;7.28;4.28;;;;;;;;;;5011245;28;20097;-70
2023/09/26 05:29:38;;;;;;;8.55;4.88;;;;;;;;;;5011190;28;20390;-69
2023/09/26 05:32:24;;;;;;;8.90;5.00;;;;;;;;;;5011284;28;20048;-71
2023/09/26 05:35:09;;;;;;;7.00;4.57;;;;;;;;;;5010961;28;20129;-69
2023/09/26 05:37:54;;;;;;;6.97;4.80;;;;;;;;;;5010746;28;20109;-70
2023/09/26 05:40:40;;;;;;;7.15;5.22;;;;;;;;;;4991327;28;20407;-75
2023/09/26 05:43:26;;;;;;;10.43;5.45;;;;;;;;;;5007786;28;20030;-70
2023/09/26 05:46:12;;;;;;;7.70;4.85;;;;;;;;;;5012339;28;20111;-71
2023/09/26 05:48:57;;;;;;;8.45;4.82;;;;;;;;;;5006755;28;20026;-69
2023/09/26 05:51:42;;;;;;;8.48;5.80;;;;;;;;;;5010766;28;20032;-70
2023/09/26 05:54:29;;;;;;;8.13;4.75;;;;;;;;;;5012149;28;20044;-69
2023/09/26 05:57:14;;;;;;;7.05;4.35;;;;;;;;;;5010082;28;20112;-69
2023/09/26 06:00:00;;;;;;;9.15;5.05;;;;;;;;;;5010840;28;20381;-70
2023/09/26 06:02:45;;;;;;;6.72;4.22;;;;;;;;;;4999061;28;20034;-70
2023/09/26 06:05:30;;;;;;;9.63;5.00;;;;;;;;;;5010507;28;20125;-69
2023/09/26 06:08:15;;;;;;;8.45;5.28;;;;;;;;;;5010531;28;20030;-70
2023/09/26 06:11:02;;;;;;;9.60;5.75;;;;;;;;;;5010219;28;20030;-70
2023/09/26 06:13:47;;;;;;;9.10;5.32;;;;;;;;;;5010100;28;20521;-72
2023/09/26 06:16:33;;;;;;;7.78;5.22;;;;;;;;;;5009802;28;20033;-71
2023/09/26 06:19:18;;;;;;;9.68;6.15;;;;;;;;;;5009071;28;20401;-77
2023/09/26 06:22:03;;;;;;;10.68;5.55;;;;;;;;;;5010621;28;20024;-77
2023/09/26 06:24:48;;;;;;;7.50;4.40;;;;;;;;;;5009949;28;20022;-75
2023/09/26 06:27:37;;;;;;;11.02;5.32;;;;;;;;;;5010356;28;20212;-76
2023/09/26 06:30:22;;;;;;;9.95;5.25;;;;;;;;;;5010263;28;20164;-76
2023/09/26 06:33:07;;;;;;;8.50;4.90;;;;;;;;;;5010134;28;20037;-76
2023/09/26 06:35:52;;;;;;;6.75;4.63;;;;;;;;;;5010070;28;20457;-68
2023/09/26 06:38:37;;;;;;;10.55;6.07;;;;;;;;;;5009765;28;20030;-69
2023/09/26 06:41:23;;;;;;;10.00;4.93;;;;;;;;;;5009569;28;20048;-69
2023/09/26 06:44:09;;;;;;;11.07;5.30;;;;;;;;;;5009688;28;20029;-68
2023/09/26 06:46:54;;;;;;;9.85;5.00;;;;;;;;;;5013377;28;20032;-68
2023/09/26 06:49:40;;;;;;;7.82;4.50;;;;;;;;;;5010242;28;20034;-68
2023/09/26 06:52:25;;;;;;;7.40;4.50;;;;;;;;;;5009783;28;20033;-76
2023/09/26 06:55:10;;;;;;;10.30;5.45;;;;;;;;;;5010903;28;20040;-79
2023/09/26 06:57:56;;;;;;;10.48;4.35;;;;;;;;;;5009273;28;20070;-78
2023/09/26 07:00:41;;;;;;;8.25;5.20;;;;;;;;;;5007875;28;20037;-78
2023/09/26 07:03:27;;;;;;;9.80;4.90;;;;;;;;;;5006704;28;20393;-80
2023/09/26 07:06:13;;;;;;;9.88;4.88;;;;;;;;;;4997916;28;20033;-79
2023/09/26 07:08:59;;;;;;;7.45;4.15;;;;;;;;;;5008794;28;20024;-79
2023/09/26 07:11:44;;;;;;;8.02;5.22;;;;;;;;;;5009098;28;20033;-77
2023/09/26 07:14:32;;;;;;;13.20;4.75;;;;;;;;;;5009242;28;20033;-77
2023/09/26 07:17:18;;;;;;;6.95;4.40;;;;;;;;;;5009142;28;20046;-75
2023/09/26 07:20:06;;;;;;;7.80;5.03;;;;;;;;;;5008980;28;20469;-74
2023/09/26 07:22:52;;;;;;;11.30;4.88;;;;;;;;;;5009196;28;20054;-76
2023/09/26 07:25:38;;;;;;;8.43;4.28;;;;;;;;;;5008846;28;20041;-75
2023/09/26 07:28:23;;;;;;;6.32;3.60;;;;;;;;;;5009240;28;20045;-75
2023/09/26 07:31:10;;;;;;;13.27;4.40;;;;;;;;;;5008757;28;20042;-75
2023/09/26 07:33:55;;;;;;;7.68;4.07;;;;;;;;;;5009132;28;20481;-79
2023/09/26 07:36:40;;;;;;;6.63;4.07;;;;;;;;;;5008706;28;20041;-79
2023/09/26 07:39:26;;;;;;;7.53;3.40;;;;;;;;;;5008357;28;20047;-76
2023/09/26 07:42:11;;;;;;;5.35;3.40;;;;;;;;;;5008892;28;20041;-79
2023/09/26 07:44:58;;;;;;;8.27;3.65;;;;;;;;;;5007711;28;20305;-78
2023/09/26 07:47:44;;;;;;;9.02;4.10;;;;;;;;;;5010230;28;20377;-73
2023/09/26 07:50:29;;;;;;;5.55;3.83;;;;;;;;;;5008635;28;20193;-66
2023/09/26 07:53:14;;;;;;;5.90;3.08;;;;;;;;;;5009466;28;20037;-67
2023/09/26 07:55:59;;;;;;;6.22;3.22;;;;;;;;;;4997062;28;20030;-67
2023/09/26 07:58:44;;;;;;;5.93;3.10;;;;;;;;;;5008510;28;20532;-66
2023/09/26 08:01:30;;;;;;;8.55;4.05;;;;;;;;;;5008592;28;20157;-66
2023/09/26 08:04:15;;;;;;;4.80;2.80;;;;;;;;;;5008713;28;20042;-66
2023/09/26 08:07:00;;;;;;;6.93;3.92;;;;;;;;;;5008231;28;20034;-68
2023/09/26 08:09:45;;;;;;;4.57;2.63;;;;;;;;;;5008703;28;20029;-73
2023/09/26 08:12:31;;;;;;;4.43;2.42;;;;;;;;;;5008994;28;20142;-73
2023/09/26 08:15:16;;;;;;;6.25;2.95;;;;;;;;;;4985859;28;20034;-72
2023/09/26 08:18:02;;;;;;;7.63;3.45;;;;;;;;;;5006133;28;20477;-73
2023/09/26 08:20:47;;;;;;;7.93;3.30;;;;;;;;;;5008995;28;20046;-73
2023/09/26 08:23:32;;;;;;;4.63;3.05;;;;;;;;;;5008561;28;20049;-74
2023/09/26 08:26:17;;;;;;;6.22;2.83;;;;;;;;;;5005948;28;20117;-74
2023/09/26 08:29:05;;;;;;;6.40;3.10;;;;;;;;;;5008016;28;20084;-69
2023/09/26 08:31:51;;;;;;;6.75;3.42;;;;;;;;;;5007738;28;20033;-70
2023/09/26 08:34:36;;;;;;;6.10;3.03;;;;;;;;;;5008137;28;20037;-69
2023/09/26 08:37:22;;;;;;;5.72;2.75;;;;;;;;;;5007735;28;20038;-69
2023/09/26 08:40:13;;;;;;;7.32;3.33;;;;;;;;;;5007864;28;20030;-69
2023/09/26 08:42:59;;;;;;;6.35;2.90;;;;;;;;;;5009870;28;20097;-69
2023/09/26 08:45:44;;;;;;;5.60;3.78;;;;;;;;;;5011904;28;20045;-81
2023/09/26 08:48:29;;;;;;;4.18;2.83;;;;;;;;;;5014881;28;20080;-78
2023/09/26 08:51:14;;;;;;;4.55;2.80;;;;;;;;;;5012277;28;20069;-79
2023/09/26 08:53:59;;;;;;;5.03;2.80;;;;;;;;;;5013578;28;20031;-78
2023/09/26 08:56:45;;;;;;;5.10;2.65;;;;;;;;;;5011944;28;20099;-79
2023/09/26 08:59:31;;;;;;;7.50;3.45;;;;;;;;;;5012151;28;20038;-78
2023/09/26 09:02:16;;;;;;;5.55;2.95;;;;;;;;;;5011764;28;20041;-67
2023/09/26 09:05:03;;;;;;;4.63;2.97;;;;;;;;;;5011387;28;20034;-73
2023/09/26 09:07:48;;;;;;;6.45;2.65;;;;;;;;;;5011644;28;20040;-72
2023/09/26 09:10:52;;;;;;;6.85;3.13;;;;;;;;;;5011625;28;20036;-73
2023/09/26 09:13:38;;;;;;;5.05;3.22;;;;;;;;;;5011642;28;20046;-73
2023/09/26 09:16:23;;;;;;;8.05;3.40;;;;;;;;;;5011348;28;20034;-73
2023/09/26 09:19:08;;;;;;;6.65;3.05;;;;;;;;;;5011582;28;20029;-69
2023/09/26 09:22:12;;;;;;;5.15;3.17;;;;;;;;;;5011558;28;20060;-74
2023/09/26 09:24:59;;;;;;;5.63;3.35;;;;;;;;;;5010189;28;20104;-72
2023/09/26 09:27:44;;;;;;;6.47;3.67;;;;;;;;;;5011030;28;20038;-74
2023/09/26 09:30:36;;;;;;;6.53;3.40;;;;;;;;;;5011334;28;20041;-72
2023/09/26 09:33:21;;;;;;;9.48;3.40;;;;;;;;;;5010798;28;20042;-73
2023/09/26 09:36:06;;;;;;;7.07;2.92;;;;;;;;;;5010931;28;20052;-73
2023/09/26 09:38:52;;;;;;;7.75;3.33;;;;;;;;;;5011576;28;20030;-78
2023/09/26 09:41:37;;;;;;;5.07;2.50;;;;;;;;;;5010896;28;20072;-69
2023/09/26 09:44:23;;;;;;;5.70;2.92;;;;;;;;;;5010976;28;20042;-70
2023/09/26 09:47:08;;;;;;;10.68;2.85;;;;;;;;;;5013476;28;20053;-68
2023/09/26 09:49:54;;;;;;;7.13;2.78;;;;;;;;;;5010364;28;20469;-70
2023/09/26 09:52:43;;;;;;;7.78;3.35;;;;;;;;;;5010983;28;20029;-69
2023/09/26 09:55:29;;;;;;;5.43;3.10;;;;;;;;;;5011799;28;20469;-69
2023/09/26 09:58:15;;;;;;;6.28;3.03;;;;;;;;;;5010469;28;20121;-78
2023/09/26 10:01:02;;;;;;;6.22;2.83;;;;;;;;;;5008264;28;20033;-67
2023/09/26 10:03:51;;;;;;;9.73;3.10;;;;;;;;;;5010328;28;20030;-67
2023/09/26 10:06:38;;;;;;;5.53;2.65;;;;;;;;;;5010832;28;20041;-69
2023/09/26 10:09:23;;;;;;;4.82;2.35;;;;;;;;;;5010627;28;20278;-68
2023/09/26 10:12:09;;;;;;;4.43;2.63;;;;;;;;;;5010335;28;20084;-68
2023/09/26 10:14:56;;;;;;;4.22;2.80;;;;;;;;;;5010137;28;20014;-70
2023/09/26 10:17:41;;;;;;;5.75;2.40;;;;;;;;;;5010131;28;20471;-77
2023/09/26 10:20:28;;;;;;;4.55;2.75;;;;;;;;;;5010660;28;20111;-77
2023/09/26 10:23:13;;;;;;;5.93;3.00;;;;;;;;;;5010145;28;20045;-77
2023/09/26 10:26:00;;;;;;;4.75;2.80;;;;;;;;;;5009267;28;20037;-76
2023/09/26 10:28:46;;;;;;;6.43;2.75;;;;;;;;;;5010041;28;20030;-78
2023/09/26 10:31:34;;;;;;;5.45;2.47;;;;;;;;;;5010025;28;20045;-78
2023/09/26 10:34:27;;;;;;;6.25;2.47;;;;;;;;;;5010272;28;20042;-70
2023/09/26 10:37:14;;;;;;;5.35;2.75;;;;;;;;;;5010216;28;20252;-79
2023/09/26 10:40:00;;;;;;;5.13;2.45;;;;;;;;;;5009856;28;20058;-76
2023/09/26 10:42:46;;;;;;;7.45;2.65;;;;;;;;;;5010052;28;20037;-77
2023/09/26 10:45:31;;;;;;;3.83;2.70;;;;;;;;;;5009903;28;20535;-76
2023/09/26 10:48:17;;;;;;;7.50;3.60;;;;;;;;;;4998415;28;20038;-77
2023/09/26 10:51:02;;;;;;;5.35;2.05;;;;;;;;;;5010114;28;20120;-78
2023/09/26 10:53:48;;;;;;;5.70;2.05;;;;;;;;;;5009965;28;20065;-68
2023/09/26 10:56:33;;;;;;;5.95;2.25;;;;;;;;;;5009652;28;20042;-76
2023/09/26 10:59:18;;;;;;;4.78;2.35;;;;;;;;;;5009503;28;20038;-77
2023/09/26 11:02:04;;;;;;;4.63;2.17;;;;;;;;;;5009387;28;20113;-76
2023/09/26 11:04:50;;;;;;;2.45;1.92;;;;;;;;;;5009242;28;20431;-74
2023/09/26 11:07:36;;;;;;;7.22;2.60;;;;;;;;;;5009090;28;20045;-76
2023/09/26 11:10:22;;;;;;;3.75;2.13;;;;;;;;;;5009274;28;20033;-78
2023/09/26 11:13:07;;;;;;;2.63;1.80;;;;;;;;;;5009116;28;20022;-78
2023/09/26 11:15:52;;;;;;;3.45;1.98;;;;;;;;;;5008791;28;20121;-76
2023/09/26 11:18:38;;;;;;;3.35;1.85;;;;;;;;;;5009301;28;20378;-75
2023/09/26 11:21:23;;;;;;;2.85;1.90;;;;;;;;;;5009184;28;20045;-75
2023/09/26 11:24:30;;;;;;;3.00;1.40;;;;;;;;;;5009429;28;20103;-76
2023/09/26 11:27:16;;;;;;;6.00;1.80;;;;;;;;;;5008938;28;20037;-75
2023/09/26 11:30:03;;;;;;;2.75;1.73;;;;;;;;;;5009022;28;20036;-72
2023/09/26 11:32:50;;;;;;;4.45;1.60;;;;;;;;;;5009135;28;20123;-68
2023/09/26 11:35:36;;;;;;;2.88;1.45;;;;;;;;;;5009188;28;20343;-69
2023/09/26 11:38:21;;;;;;;4.55;1.60;;;;;;;;;;5008657;28;20034;-68
2023/09/26 11:41:09;;;;;;;2.78;1.88;;;;;;;;;;5008895;28;20121;-70
2023/09/26 11:43:55;;;;;;;3.27;2.03;;;;;;;;;;5008870;28;20045;-69
2023/09/26 11:46:44;;;;;;;3.20;1.67;;;;;;;;;;5010736;28;20359;-73
2023/09/26 11:49:30;;;;;;;4.28;1.80;;;;;;;;;;5008640;28;20081;-69
2023/09/26 11:52:16;;;;;;;4.13;1.83;;;;;;;;;;5008702;28;20041;-68
2023/09/26 11:55:01;;;;;;;3.30;1.60;;;;;;;;;;5010037;28;20056;-70
2023/09/26 11:57:48;;;;;;;3.33;1.75;;;;;;;;;;5008796;28;20037;-72
2023/09/26 12:00:33;;;;;;;2.58;1.38;;;;;;;;;;4984456;28;20040;-71
2023/09/26 12:03:19;;;;;;;4.03;1.80;;;;;;;;;;5008540;28;20124;-70
2023/09/26 12:06:05;;;;;;;1.80;1.27;;;;;;;;;;5008560;28;20069;-70
2023/09/26 12:08:50;;;;;;;2.25;1.40;;;;;;;;;;5007821;28;20041;-80
2023/09/26 12:11:36;;;;;;;2.58;1.50;;;;;;;;;;5007433;28;20469;-79
2023/09/26 12:14:21;;;;;;;2.33;1.60;;;;;;;;;;5005454;28;20046;-79
2023/09/26 12:17:07;;;;;;;2.25;1.65;;;;;;;;;;5004774;28;20041;-78
2023/09/26 12:19:53;;;;;;;2.00;1.30;;;;;;;;;;5005383;28;20041;-78
2023/09/26 12:22:38;;;;;;;3.97;1.90;;;;;;;;;;5005404;28;20516;-79
2023/09/26 12:25:25;;;;;;;2.80;1.30;;;;;;;;;;5006556;28;20080;-68
2023/09/26 12:28:10;;;;;;;4.70;1.77;;;;;;;;;;5007272;28;20076;-68
2023/09/26 12:30:55;;;;;;;4.68;1.60;;;;;;;;;;5007658;28;20034;-68
2023/09/26 12:33:41;;;;;;;1.48;1.30;;;;;;;;;;5007602;28;20045;-68
2023/09/26 12:36:26;;;;;;;2.33;1.40;;;;;;;;;;5006984;28;20121;-67
2023/09/26 12:39:11;;;;;;;3.30;1.77;;;;;;;;;;5006295;28;20028;-67
2023/09/26 12:41:56;;;;;;;2.63;1.38;;;;;;;;;;5005140;28;20030;-77
2023/09/26 12:44:42;;;;;;;2.42;1.45;;;;;;;;;;5007736;28;20446;-69
2023/09/26 12:47:27;;;;;;;2.90;1.90;;;;;;;;;;5003185;28;20120;-68
2023/09/26 12:50:13;;;;;;;4.82;2.22;;;;;;;;;;5007821;28;20073;-69
2023/09/26 12:52:58;;;;;;;3.03;1.42;;;;;;;;;;5008307;28;20100;-68
2023/09/26 12:55:43;;;;;;;4.57;1.95;;;;;;;;;;5007928;28;20038;-68
2023/09/26 12:58:28;;;;;;;3.80;1.70;;;;;;;;;;5007633;28;20096;-68
2023/09/26 13:01:13;;;;;;;3.05;1.77;;;;;;;;;;5007733;28;20472;-68
2023/09/26 13:03:59;;;;;;;1.98;1.40;;;;;;;;;;5007302;28;20026;-68
2023/09/26 13:06:44;;;;;;;2.40;1.67;;;;;;;;;;5008046;28;20037;-68
2023/09/26 13:09:29;;;;;;;3.60;1.70;;;;;;;;;;5008024;28;20034;-67
2023/09/26 13:12:14;;;;;;;4.03;2.20;;;;;;;;;;5007669;28;20041;-68
2023/09/26 13:15:00;;;;;;;3.38;1.73;;;;;;;;;;5007527;28;20057;-69
2023/09/26 13:17:45;;;;;;;5.10;1.65;;;;;;;;;;5007011;28;20186;-67
2023/09/26 13:20:31;;;;;;;4.95;2.40;;;;;;;;;;5007575;28;20393;-73
2023/09/26 13:23:16;;;;;;;4.40;2.15;;;;;;;;;;5007395;28;20065;-67
2023/09/26 13:26:01;;;;;;;4.20;1.95;;;;;;;;;;5006707;28;20081;-68
2023/09/26 13:28:46;;;;;;;4.53;1.75;;;;;;;;;;5009106;28;20456;-67
2023/09/26 13:31:31;;;;;;;1.98;1.67;;;;;;;;;;5010910;28;20088;-70
2023/09/26 13:34:17;;;;;;;2.80;1.90;;;;;;;;;;5011199;28;20482;-71
2023/09/26 13:37:02;;;;;;;4.07;2.35;;;;;;;;;;5010938;28;20033;-62
2023/09/26 13:39:47;;;;;;;2.47;1.90;;;;;;;;;;5011060;28;20029;-72
2023/09/26 13:42:33;;;;;;;4.25;2.20;;;;;;;;;;5010359;28;20040;-70
2023/09/26 13:45:18;;;;;;;2.35;1.52;;;;;;;;;;5011218;28;20038;-72
2023/09/26 13:48:03;;;;;;;1.50;1.40;;;;;;;;;;5013314;28;20038;-71
2023/09/26 13:50:49;;;;;;;4.60;1.67;;;;;;;;;;5011166;28;20112;-70
2023/09/26 13:53:34;;;;;;;2.55;1.70;;;;;;;;;;5011907;28;20067;-70
2023/09/26 13:56:19;;;;;;;2.85;1.80;;;;;;;;;;5010927;28;20080;-69
2023/09/26 13:59:04;;;;;;;2.53;1.75;;;;;;;;;;5010843;28;20029;-68
2023/09/26 14:01:50;;;;;;;3.10;1.90;;;;;;;;;;5010502;28;20497;-68
2023/09/26 14:04:35;;;;;;;4.07;2.00;;;;;;;;;;5010732;28;20041;-69
2023/09/26 14:07:20;;;;;;;3.40;1.35;;;;;;;;;;5010044;28;20533;-68
2023/09/26 14:10:05;;;;;;;4.72;1.60;;;;;;;;;;5010636;28;20452;-69
2023/09/26 14:12:51;;;;;;;2.47;1.75;;;;;;;;;;5010341;28;20037;-67
2023/09/26 14:15:36;;;;;;;4.20;2.20;;;;;;;;;;5009896;28;20491;-73
2023/09/26 14:18:21;;;;;;;2.55;1.50;;;;;;;;;;5009934;28;20122;-78
2023/09/26 14:21:13;;;;;;;3.00;1.92;;;;;;;;;;5009842;28;20499;-77
2023/09/26 14:23:59;;;;;;;2.28;1.38;;;;;;;;;;5010895;28;20084;-77
2023/09/26 14:26:44;;;;;;;3.75;1.70;;;;;;;;;;5010376;28;20080;-78
2023/09/26 14:29:31;;;;;;;10.50;2.05;;;;;;;;;;5010738;28;20065;-77
2023/09/26 14:32:17;;;;;;;2.97;1.80;;;;;;;;;;5010044;28;20080;-78
2023/09/26 14:35:02;;;;;;;5.38;2.28;;;;;;;;;;5009348;28;20032;-78
2023/09/26 14:37:47;;;;;;;3.35;1.80;;;;;;;;;;5010189;28;20037;-69
2023/09/26 14:40:32;;;;;;;5.43;2.15;;;;;;;;;;5008683;28;20042;-69
2023/09/26 14:43:17;;;;;;;2.45;1.73;;;;;;;;;;5009477;28;20503;-69
2023/09/26 14:46:03;;;;;;;2.03;1.38;;;;;;;;;;5010314;28;20026;-69
2023/09/26 14:48:49;;;;;;;2.38;1.42;;;;;;;;;;5010547;28;20030;-69
2023/09/26 14:51:34;;;;;;;2.15;1.42;;;;;;;;;;5009906;28;20513;-68
2023/09/26 14:54:19;;;;;;;4.22;1.80;;;;;;;;;;5010945;28;20028;-73
2023/09/26 14:57:05;;;;;;;5.32;1.77;;;;;;;;;;5009358;28;20041;-74
2023/09/26 14:59:50;;;;;;;2.78;1.58;;;;;;;;;;5009836;28;20408;-73
2023/09/26 15:02:36;;;;;;;3.65;1.65;;;;;;;;;;4998183;28;20037;-75
2023/09/26 15:05:21;;;;;;;3.42;1.73;;;;;;;;;;4995913;28;20049;-74
2023/09/26 15:08:06;;;;;;;4.93;2.05;;;;;;;;;;5009539;28;20037;-75
2023/09/26 15:10:52;;;;;;;3.35;1.85;;;;;;;;;;5009034;28;20037;-74
2023/09/26 15:13:37;;;;;;;3.17;2.03;;;;;;;;;;5009358;28;20453;-69
2023/09/26 15:16:22;;;;;;;3.70;2.10;;;;;;;;;;5009115;28;20108;-69
2023/09/26 15:19:07;;;;;;;4.20;1.77;;;;;;;;;;5009310;28;20048;-69
2023/09/26 15:21:53;;;;;;;4.18;1.95;;;;;;;;;;5009443;28;20029;-68
2023/09/26 15:24:38;;;;;;;5.85;2.00;;;;;;;;;;5008115;28;20077;-69
2023/09/26 15:27:23;;;;;;;2.28;1.48;;;;;;;;;;5009108;28;20108;-75
2023/09/26 15:30:09;;;;;;;8.13;2.50;;;;;;;;;;5008502;28;20379;-69
2023/09/26 15:32:54;;;;;;;4.53;2.28;;;;;;;;;;5008761;28;20448;-78
2023/09/26 15:35:40;;;;;;;7.20;1.95;;;;;;;;;;5006607;28;20026;-78
2023/09/26 15:38:25;;;;;;;4.40;2.35;;;;;;;;;;5005757;28;20231;-80
2023/09/26 15:41:17;;;;;;;3.65;1.92;;;;;;;;;;5006198;28;20056;-78
2023/09/26 15:44:02;;;;;;;2.85;1.33;;;;;;;;;;5006219;28;20030;-78
2023/09/26 15:46:47;;;;;;;4.50;1.95;;;;;;;;;;5009063;28;20096;-71
2023/09/26 15:49:33;;;;;;;3.22;1.77;;;;;;;;;;5008159;28;20548;-76
2023/09/26 15:52:18;;;;;;;2.40;1.70;;;;;;;;;;5019922;28;20285;-73
2023/09/26 15:55:05;;;;;;;3.20;1.80;;;;;;;;;;5009637;28;20029;-73
2023/09/26 15:57:51;;;;;;;3.17;1.77;;;;;;;;;;5008375;28;20465;-73
2023/09/26 16:00:36;;;;;;;4.72;1.60;;;;;;;;;;5008625;28;20026;-72
2023/09/26 16:03:21;;;;;;;5.60;2.08;;;;;;;;;;5008536;28;20057;-73
2023/09/26 16:06:06;;;;;;;3.45;1.80;;;;;;;;;;5008165;28;20022;-80
2023/09/26 16:08:52;;;;;;;3.33;1.70;;;;;;;;;;5008294;28;20488;-69
2023/09/26 16:11:37;;;;;;;3.50;1.70;;;;;;;;;;5008472;28;20028;-70
2023/09/26 16:14:22;;;;;;;3.53;1.63;;;;;;;;;;5008045;28;20358;-68
2023/09/26 16:17:08;;;;;;;4.57;2.10;;;;;;;;;;5008088;28;20056;-71
2023/09/26 16:19:55;;;;;;;3.83;2.47;;;;;;;;;;5007878;28;20095;-69
2023/09/26 16:22:40;;;;;;;4.03;2.55;;;;;;;;;;5008184;28;20493;-80
2023/09/26 16:25:25;;;;;;;4.38;2.03;;;;;;;;;;5008127;28;20480;-70
2023/09/26 16:28:12;;;;;;;6.10;2.42;;;;;;;;;;5007738;28;20123;-75
2023/09/26 16:30:57;;;;;;;5.18;2.42;;;;;;;;;;5008254;28;20163;-74
2023/09/26 16:33:42;;;;;;;4.20;2.47;;;;;;;;;;5008244;28;20087;-74